sensor_id;sensor_type;location;lat;lon;timestamp;noise_LAeq;noise_LA_min;noise_LA_max;noise_LA01;noise_LA95
45651;Laerm;31365;48.858;8.530;2024-02-16T00:02:04;39.33;32.35;43.42;;
45651;Laerm;31365;48.858;8.530;2024-02-16T00:04:33;39.47;34.31;43.34;;
45651;Laerm;31365;48.858;8.530;2024-02-16T00:07:01;38.94;30.89;41.61;;
45651;Laerm;31365;48.858;8.530;2024-02-16T00:09:30;39.05;33.44;43.49;;
45651;Laerm;31365;48.858;8.530;2024-02-16T00:12:02;40.27;29.92;45.04;;
45651;Laerm;31365;48.858;8.530;2024-02-16T00:14:31;38.29;32.35;41.68;;
45651;Laerm;31365;48.858;8.530;2024-02-16T00:16:59;55.12;32.93;73.42;;
45651;Laerm;31365;48.858;8.530;2024-02-16T00:19:27;38.37;32.35;41.46;;
45651;Laerm;31365;48.858;8.530;2024-02-16T00:21:56;38.19;31.68;41.30;;
45651;Laerm;31365;48.858;8.530;2024-02-16T00:24:25;57.27;32.35;76.93;;
45651;Laerm;31365;48.858;8.530;2024-02-16T00:26:53;38.26;30.89;43.49;;
45651;Laerm;31365;48.858;8.530;2024-02-16T00:29:23;38.24;32.35;41.53;;
45651;Laerm;31365;48.858;8.530;2024-02-16T00:31:52;38.56;32.35;43.63;;
45651;Laerm;31365;48.858;8.530;2024-02-16T00:34:21;40.19;31.68;51.16;;
45651;Laerm;31365;48.858;8.530;2024-02-16T00:36:52;38.19;29.92;41.53;;
45651;Laerm;31365;48.858;8.530;2024-02-16T00:39:20;38.15;32.35;41.75;;
45651;Laerm;31365;48.858;8.530;2024-02-16T00:41:50;38.68;31.68;55.79;;
45651;Laerm;31365;48.858;8.530;2024-02-16T00:44:19;38.37;30.89;41.68;;
45651;Laerm;31365;48.858;8.530;2024-02-16T00:46:48;38.98;33.44;43.89;;
45651;Laerm;31365;48.858;8.530;2024-02-16T00:49:17;38.36;32.35;42.09;;
45651;Laerm;31365;48.858;8.530;2024-02-16T00:51:45;38.60;31.68;44.80;;
45651;Laerm;31365;48.858;8.530;2024-02-16T00:54:14;50.53;33.44;69.05;;
45651;Laerm;31365;48.858;8.530;2024-02-16T00:56:43;39.06;33.44;41.68;;
45651;Laerm;31365;48.858;8.530;2024-02-16T00:59:12;38.66;32.35;41.53;;
45651;Laerm;31365;48.858;8.530;2024-02-16T01:01:40;52.85;32.35;74.56;;
45651;Laerm;31365;48.858;8.530;2024-02-16T01:04:10;38.73;30.89;43.99;;
45651;Laerm;31365;48.858;8.530;2024-02-16T01:06:40;38.44;32.35;41.46;;
45651;Laerm;31365;48.858;8.530;2024-02-16T01:09:08;38.60;32.35;42.22;;
45651;Laerm;31365;48.858;8.530;2024-02-16T01:11:41;53.90;32.35;75.40;;
45651;Laerm;31365;48.858;8.530;2024-02-16T01:14:10;38.45;32.35;41.46;;
45651;Laerm;31365;48.858;8.530;2024-02-16T01:16:38;38.77;30.89;43.54;;
45651;Laerm;31365;48.858;8.530;2024-02-16T01:19:06;38.48;32.93;42.03;;
45651;Laerm;31365;48.858;8.530;2024-02-16T01:21:38;39.69;32.93;51.07;;
45651;Laerm;31365;48.858;8.530;2024-02-16T01:24:08;56.82;37.12;76.87;;
45651;Laerm;31365;48.858;8.530;2024-02-16T01:26:36;52.28;31.68;73.11;;
45651;Laerm;31365;48.858;8.530;2024-02-16T01:29:05;38.71;30.89;42.59;;
45651;Laerm;31365;48.858;8.530;2024-02-16T01:31:34;38.91;31.68;43.60;;
45651;Laerm;31365;48.858;8.530;2024-02-16T01:34:04;42.61;31.68;62.35;;
45651;Laerm;31365;48.858;8.530;2024-02-16T01:36:32;51.94;32.93;70.40;;
45651;Laerm;31365;48.858;8.530;2024-02-16T01:39:03;55.70;31.68;75.23;;
45651;Laerm;31365;48.858;8.530;2024-02-16T01:41:32;38.60;32.35;42.09;;
45651;Laerm;31365;48.858;8.530;2024-02-16T01:44:00;38.33;32.93;41.61;;
45651;Laerm;31365;48.858;8.530;2024-02-16T01:46:29;38.92;32.35;43.68;;
45651;Laerm;31365;48.858;8.530;2024-02-16T01:48:58;38.62;32.93;41.46;;
45651;Laerm;31365;48.858;8.530;2024-02-16T01:51:27;38.63;31.68;43.09;;
45651;Laerm;31365;48.858;8.530;2024-02-16T01:53:56;38.53;30.89;41.30;;
45651;Laerm;31365;48.858;8.530;2024-02-16T01:56:27;38.48;31.68;41.46;;
45651;Laerm;31365;48.858;8.530;2024-02-16T01:58:57;51.82;33.44;70.67;;
45651;Laerm;31365;48.858;8.530;2024-02-16T02:01:26;51.82;33.44;70.67;;
45651;Laerm;31365;48.858;8.530;2024-02-16T02:03:55;38.75;31.68;41.96;;
45651;Laerm;31365;48.858;8.530;2024-02-16T02:06:24;38.70;32.35;41.61;;
45651;Laerm;31365;48.858;8.530;2024-02-16T02:08:52;40.22;33.44;44.43;;
45651;Laerm;31365;48.858;8.530;2024-02-16T02:11:20;40.80;33.44;44.54;;
45651;Laerm;31365;48.858;8.530;2024-02-16T02:13:51;54.58;32.35;76.39;;
45651;Laerm;31365;48.858;8.530;2024-02-16T02:16:21;38.72;32.00;43.49;;
45651;Laerm;31365;48.858;8.530;2024-02-16T02:18:50;38.57;31.68;41.46;;
45651;Laerm;31365;48.858;8.530;2024-02-16T02:21:19;38.43;30.89;41.46;;
45651;Laerm;31365;48.858;8.530;2024-02-16T02:23:49;39.07;30.89;41.68;;
45651;Laerm;31365;48.858;8.530;2024-02-16T02:26:18;39.76;34.69;42.47;;
45651;Laerm;31365;48.858;8.530;2024-02-16T02:28:47;42.17;37.88;44.73;;
45651;Laerm;31365;48.858;8.530;2024-02-16T02:31:15;55.64;33.90;77.40;;
45651;Laerm;31365;48.858;8.530;2024-02-16T02:33:44;39.42;34.31;41.68;;
45651;Laerm;31365;48.858;8.530;2024-02-16T02:36:12;39.35;33.44;41.68;;
45651;Laerm;31365;48.858;8.530;2024-02-16T02:38:41;39.43;34.31;41.61;;
45651;Laerm;31365;48.858;8.530;2024-02-16T02:41:12;56.94;34.69;75.37;;
45651;Laerm;31365;48.858;8.530;2024-02-16T02:43:43;44.26;35.36;64.73;;
45651;Laerm;31365;48.858;8.530;2024-02-16T02:46:15;40.02;35.04;44.47;;
45651;Laerm;31365;48.858;8.530;2024-02-16T02:48:44;39.65;35.36;45.80;;
45651;Laerm;31365;48.858;8.530;2024-02-16T02:51:18;39.73;34.31;43.77;;
45651;Laerm;31365;48.858;8.530;2024-02-16T02:53:47;55.97;33.44;76.85;;
45651;Laerm;31365;48.858;8.530;2024-02-16T02:56:17;39.87;35.04;43.49;;
45651;Laerm;31365;48.858;8.530;2024-02-16T02:58:46;39.51;33.90;41.89;;
45651;Laerm;31365;48.858;8.530;2024-02-16T03:01:14;40.20;34.31;44.83;;
45651;Laerm;31365;48.858;8.530;2024-02-16T03:03:43;39.48;32.93;43.29;;
45651;Laerm;31365;48.858;8.530;2024-02-16T03:06:11;39.53;33.90;41.75;;
45651;Laerm;31365;48.858;8.530;2024-02-16T03:08:41;39.58;33.44;41.61;;
45651;Laerm;31365;48.858;8.530;2024-02-16T03:11:09;53.13;33.90;73.37;;
45651;Laerm;31365;48.858;8.530;2024-02-16T03:13:39;58.47;35.59;79.89;;
45651;Laerm;31365;48.858;8.530;2024-02-16T03:16:08;53.63;33.97;69.52;;
45651;Laerm;31365;48.858;8.530;2024-02-16T03:21:05;41.66;33.90;46.30;;
45651;Laerm;31365;48.858;8.530;2024-02-16T03:23:34;40.88;35.04;45.20;;
45651;Laerm;31365;48.858;8.530;2024-02-16T03:26:04;39.08;33.90;42.22;;
45651;Laerm;31365;48.858;8.530;2024-02-16T03:28:33;64.33;33.90;80.38;;
45651;Laerm;31365;48.858;8.530;2024-02-16T03:31:03;56.68;33.44;78.21;;
45651;Laerm;31365;48.858;8.530;2024-02-16T03:33:32;44.77;35.04;61.65;;
45651;Laerm;31365;48.858;8.530;2024-02-16T03:36:01;51.43;35.04;70.14;;
45651;Laerm;31365;48.858;8.530;2024-02-16T03:38:30;39.30;33.09;41.61;;
45651;Laerm;31365;48.858;8.530;2024-02-16T03:40:58;56.08;34.31;80.22;;
45651;Laerm;31365;48.858;8.530;2024-02-16T03:43:27;53.94;34.31;73.93;;
45651;Laerm;31365;48.858;8.530;2024-02-16T03:45:55;43.25;36.45;51.82;;
45651;Laerm;31365;48.858;8.530;2024-02-16T03:48:25;40.78;32.35;48.91;;
45651;Laerm;31365;48.858;8.530;2024-02-16T03:50:54;50.94;34.31;71.25;;
45651;Laerm;31365;48.858;8.530;2024-02-16T03:53:23;45.90;33.44;65.25;;
45651;Laerm;31365;48.858;8.530;2024-02-16T03:55:51;59.33;36.34;79.21;;
45651;Laerm;31365;48.858;8.530;2024-02-16T03:58:21;39.85;33.90;54.93;;
45651;Laerm;31365;48.858;8.530;2024-02-16T04:00:49;53.68;34.31;72.17;;
45651;Laerm;31365;48.858;8.530;2024-02-16T04:03:19;53.08;35.94;73.00;;
45651;Laerm;31365;48.858;8.530;2024-02-16T04:05:50;49.24;37.35;63.80;;
45651;Laerm;31365;48.858;8.530;2024-02-16T04:08:20;60.61;35.36;80.66;;
45651;Laerm;31365;48.858;8.530;2024-02-16T04:10:48;58.02;35.59;76.43;;
45651;Laerm;31365;48.858;8.530;2024-02-16T04:13:17;49.90;34.31;69.38;;
45651;Laerm;31365;48.858;8.530;2024-02-16T04:15:45;59.18;37.12;76.79;;
45651;Laerm;31365;48.858;8.530;2024-02-16T04:18:17;62.61;37.12;80.73;;
45651;Laerm;31365;48.858;8.530;2024-02-16T04:20:46;54.39;35.31;72.39;;
45651;Laerm;31365;48.858;8.530;2024-02-16T04:23:16;54.01;35.94;73.08;;
45651;Laerm;31365;48.858;8.530;2024-02-16T04:25:45;56.03;37.32;77.62;;
45651;Laerm;31365;48.858;8.530;2024-02-16T04:28:13;50.36;36.34;69.19;;
45651;Laerm;31365;48.858;8.530;2024-02-16T04:30:41;55.83;37.52;75.50;;
45651;Laerm;31365;48.858;8.530;2024-02-16T04:33:10;59.08;37.32;76.93;;
45651;Laerm;31365;48.858;8.530;2024-02-16T04:35:38;57.37;37.17;71.97;;
45651;Laerm;31365;48.858;8.530;2024-02-16T04:38:07;63.85;40.53;82.39;;
45651;Laerm;31365;48.858;8.530;2024-02-16T04:40:37;60.67;40.13;77.28;;
45651;Laerm;31365;48.858;8.530;2024-02-16T04:43:06;61.54;38.74;78.36;;
45651;Laerm;31365;48.858;8.530;2024-02-16T04:45:35;59.35;37.70;75.20;;
45651;Laerm;31365;48.858;8.530;2024-02-16T04:48:04;59.96;38.05;76.59;;
45651;Laerm;31365;48.858;8.530;2024-02-16T04:50:33;61.70;37.32;76.58;;
45651;Laerm;31365;48.858;8.530;2024-02-16T04:53:01;60.05;39.34;79.59;;
45651;Laerm;31365;48.858;8.530;2024-02-16T04:55:30;57.34;38.60;76.22;;
45651;Laerm;31365;48.858;8.530;2024-02-16T04:58:00;63.64;38.95;82.46;;
45651;Laerm;31365;48.858;8.530;2024-02-16T05:00:31;61.22;38.67;79.22;;
45651;Laerm;31365;48.858;8.530;2024-02-16T05:03:00;62.64;41.46;79.33;;
45651;Laerm;31365;48.858;8.530;2024-02-16T05:05:29;59.31;38.37;75.47;;
45651;Laerm;31365;48.858;8.530;2024-02-16T05:07:58;61.83;41.68;77.91;;
45651;Laerm;31365;48.858;8.530;2024-02-16T05:10:26;62.19;38.95;77.31;;
45651;Laerm;31365;48.858;8.530;2024-02-16T05:12:55;58.71;38.52;74.59;;
45651;Laerm;31365;48.858;8.530;2024-02-16T05:15:27;60.50;37.12;77.82;;
45651;Laerm;31365;48.858;8.530;2024-02-16T05:17:56;62.38;39.70;76.47;;
45651;Laerm;31365;48.858;8.530;2024-02-16T05:20:25;59.58;39.11;77.13;;
45651;Laerm;31365;48.858;8.530;2024-02-16T05:22:53;63.48;39.34;80.15;;
45651;Laerm;31365;48.858;8.530;2024-02-16T05:25:22;61.61;39.34;77.83;;
45651;Laerm;31365;48.858;8.530;2024-02-16T05:27:50;60.82;38.21;81.89;;
45651;Laerm;31365;48.858;8.530;2024-02-16T05:30:19;60.57;39.21;77.30;;
45651;Laerm;31365;48.858;8.530;2024-02-16T05:32:49;62.34;40.23;79.72;;
45651;Laerm;31365;48.858;8.530;2024-02-16T05:35:20;64.95;42.35;81.74;;
45651;Laerm;31365;48.858;8.530;2024-02-16T05:37:49;66.12;40.13;83.45;;
45651;Laerm;31365;48.858;8.530;2024-02-16T05:40:18;59.02;39.08;76.22;;
45651;Laerm;31365;48.858;8.530;2024-02-16T05:42:50;61.23;40.23;76.98;;
45651;Laerm;31365;48.858;8.530;2024-02-16T05:45:19;63.54;41.22;77.91;;
45651;Laerm;31365;48.858;8.530;2024-02-16T05:47:50;64.95;41.61;79.42;;
45651;Laerm;31365;48.858;8.530;2024-02-16T05:50:20;62.30;43.09;76.18;;
45651;Laerm;31365;48.858;8.530;2024-02-16T05:52:50;62.45;42.09;78.24;;
45651;Laerm;31365;48.858;8.530;2024-02-16T05:55:19;66.48;38.67;85.01;;
45651;Laerm;31365;48.858;8.530;2024-02-16T05:57:48;60.18;40.71;74.09;;
45651;Laerm;31365;48.858;8.530;2024-02-16T06:00:17;60.86;38.95;75.88;;
45651;Laerm;31365;48.858;8.530;2024-02-16T06:02:50;62.69;40.80;78.53;;
45651;Laerm;31365;48.858;8.530;2024-02-16T06:05:19;64.14;42.65;80.44;;
45651;Laerm;31365;48.858;8.530;2024-02-16T06:07:47;62.82;40.13;76.84;;
45651;Laerm;31365;48.858;8.530;2024-02-16T06:10:16;62.70;40.23;75.47;;
45651;Laerm;31365;48.858;8.530;2024-02-16T06:12:45;64.29;40.80;79.60;;
45651;Laerm;31365;48.858;8.530;2024-02-16T06:15:13;58.59;40.98;74.31;;
45651;Laerm;31365;48.858;8.530;2024-02-16T06:17:42;64.86;41.96;78.39;;
45651;Laerm;31365;48.858;8.530;2024-02-16T06:20:13;63.98;42.29;78.26;;
45651;Laerm;31365;48.858;8.530;2024-02-16T06:22:45;62.17;40.33;79.30;;
45651;Laerm;31365;48.858;8.530;2024-02-16T06:25:14;64.31;44.94;76.52;;
45651;Laerm;31365;48.858;8.530;2024-02-16T06:27:43;63.82;41.38;76.55;;
45651;Laerm;31365;48.858;8.530;2024-02-16T06:30:13;64.31;41.68;79.24;;
45651;Laerm;31365;48.858;8.530;2024-02-16T06:32:41;64.59;40.03;82.46;;
45651;Laerm;31365;48.858;8.530;2024-02-16T06:35:10;62.61;42.09;76.53;;
45651;Laerm;31365;48.858;8.530;2024-02-16T06:37:41;62.86;40.23;77.37;;
45651;Laerm;31365;48.858;8.530;2024-02-16T06:40:10;63.70;43.58;77.05;;
45651;Laerm;31365;48.858;8.530;2024-02-16T06:42:38;60.94;40.03;77.18;;
45651;Laerm;31365;48.858;8.530;2024-02-16T06:45:07;62.76;42.82;82.33;;
45651;Laerm;31365;48.858;8.530;2024-02-16T06:47:36;65.08;44.19;79.17;;
45651;Laerm;31365;48.858;8.530;2024-02-16T06:50:06;64.46;42.59;83.63;;
45651;Laerm;31365;48.858;8.530;2024-02-16T06:52:35;63.15;41.61;77.05;;
45651;Laerm;31365;48.858;8.530;2024-02-16T06:55:06;59.83;39.34;74.12;;
45651;Laerm;31365;48.858;8.530;2024-02-16T06:57:35;62.08;41.06;76.43;;
45651;Laerm;31365;48.858;8.530;2024-02-16T07:00:06;63.34;41.26;77.41;;
45651;Laerm;31365;48.858;8.530;2024-02-16T07:02:36;64.02;42.76;77.49;;
45651;Laerm;31365;48.858;8.530;2024-02-16T07:05:04;63.38;41.26;78.89;;
45651;Laerm;31365;48.858;8.530;2024-02-16T07:07:33;62.73;41.14;75.10;;
45651;Laerm;31365;48.858;8.530;2024-02-16T07:10:06;58.56;40.43;71.80;;
45651;Laerm;31365;48.858;8.530;2024-02-16T07:12:41;64.73;40.53;83.14;;
45651;Laerm;31365;48.858;8.530;2024-02-16T07:15:09;62.71;41.06;75.75;;
45651;Laerm;31365;48.858;8.530;2024-02-16T07:20:07;62.09;39.81;85.41;;
45651;Laerm;31365;48.858;8.530;2024-02-16T07:22:36;60.24;40.89;74.12;;
45651;Laerm;31365;48.858;8.530;2024-02-16T07:25:08;62.28;40.89;76.70;;
45651;Laerm;31365;48.858;8.530;2024-02-16T07:27:37;60.50;41.22;73.88;;
45651;Laerm;31365;48.858;8.530;2024-02-16T07:30:06;61.46;41.30;75.11;;
45651;Laerm;31365;48.858;8.530;2024-02-16T07:32:38;63.63;39.34;84.27;;
45651;Laerm;31365;48.858;8.530;2024-02-16T07:35:07;58.18;40.33;72.63;;
45651;Laerm;31365;48.858;8.530;2024-02-16T07:37:37;63.09;43.04;75.89;;
45651;Laerm;31365;48.858;8.530;2024-02-16T07:40:09;61.85;42.93;74.74;;
45651;Laerm;31365;48.858;8.530;2024-02-16T07:42:38;62.52;42.53;77.02;;
45651;Laerm;31365;48.858;8.530;2024-02-16T07:45:09;64.90;42.82;79.52;;
45651;Laerm;31365;48.858;8.530;2024-02-16T07:47:41;63.19;41.82;79.67;;
45651;Laerm;31365;48.858;8.530;2024-02-16T07:50:10;63.79;43.58;75.32;;
45651;Laerm;31365;48.858;8.530;2024-02-16T07:52:39;59.66;40.71;74.48;;
45651;Laerm;31365;48.858;8.530;2024-02-16T07:55:09;60.09;40.43;74.51;;
45651;Laerm;31365;48.858;8.530;2024-02-16T07:57:38;62.24;42.59;78.84;;
45651;Laerm;31365;48.858;8.530;2024-02-16T08:00:08;66.08;42.29;82.62;;
45651;Laerm;31365;48.858;8.530;2024-02-16T08:02:38;60.31;40.80;77.11;;
45651;Laerm;31365;48.858;8.530;2024-02-16T08:05:10;62.33;40.98;77.95;;
45651;Laerm;31365;48.858;8.530;2024-02-16T08:07:40;65.13;39.21;81.61;;
45651;Laerm;31365;48.858;8.530;2024-02-16T08:10:11;59.56;39.46;74.45;;
45651;Laerm;31365;48.858;8.530;2024-02-16T08:12:40;56.99;39.21;74.24;;
45651;Laerm;31365;48.858;8.530;2024-02-16T08:15:09;63.67;40.23;78.11;;
45651;Laerm;31365;48.858;8.530;2024-02-16T08:17:39;61.05;39.58;77.75;;
45651;Laerm;31365;48.858;8.530;2024-02-16T08:20:09;62.68;41.82;80.04;;
45651;Laerm;31365;48.858;8.530;2024-02-16T08:22:38;64.63;42.47;82.51;;
45651;Laerm;31365;48.858;8.530;2024-02-16T08:25:08;62.05;39.70;77.37;;
45651;Laerm;31365;48.858;8.530;2024-02-16T08:27:37;58.42;41.22;75.58;;
45651;Laerm;31365;48.858;8.530;2024-02-16T08:30:08;61.00;40.33;78.34;;
45651;Laerm;31365;48.858;8.530;2024-02-16T08:32:37;59.28;41.82;75.14;;
45651;Laerm;31365;48.858;8.530;2024-02-16T08:35:06;58.94;39.89;74.03;;
45651;Laerm;31365;48.858;8.530;2024-02-16T08:37:35;61.76;41.14;77.54;;
45651;Laerm;31365;48.858;8.530;2024-02-16T08:40:05;61.42;43.29;76.54;;
45651;Laerm;31365;48.858;8.530;2024-02-16T08:42:33;60.02;41.14;72.92;;
45651;Laerm;31365;48.858;8.530;2024-02-16T08:45:04;67.22;43.81;85.76;;
45651;Laerm;31365;48.858;8.530;2024-02-16T08:50:00;64.20;42.93;80.84;;
45651;Laerm;31365;48.858;8.530;2024-02-16T08:52:29;64.41;43.86;80.46;;
45651;Laerm;31365;48.858;8.530;2024-02-16T08:54:59;61.86;42.93;77.19;;
45651;Laerm;31365;48.858;8.530;2024-02-16T08:57:27;61.71;41.22;77.19;;
45651;Laerm;31365;48.858;8.530;2024-02-16T08:59:56;63.92;42.59;78.59;;
45651;Laerm;31365;48.858;8.530;2024-02-16T09:02:26;62.62;41.30;76.96;;
45651;Laerm;31365;48.858;8.530;2024-02-16T09:04:54;64.68;46.66;87.17;;
45651;Laerm;31365;48.858;8.530;2024-02-16T09:07:23;66.10;48.45;81.11;;
45651;Laerm;31365;48.858;8.530;2024-02-16T09:09:53;66.49;48.64;84.62;;
45651;Laerm;31365;48.858;8.530;2024-02-16T09:14:51;61.80;43.14;80.43;;
45651;Laerm;31365;48.858;8.530;2024-02-16T09:17:20;60.80;42.65;73.49;;
45651;Laerm;31365;48.858;8.530;2024-02-16T09:19:50;62.67;41.38;80.05;;
45651;Laerm;31365;48.858;8.530;2024-02-16T09:22:18;63.90;40.33;82.47;;
45651;Laerm;31365;48.858;8.530;2024-02-16T09:24:47;59.02;39.08;75.56;;
45651;Laerm;31365;48.858;8.530;2024-02-16T09:27:15;63.67;42.88;78.50;;
45651;Laerm;31365;48.858;8.530;2024-02-16T09:29:44;66.22;42.47;84.47;;
45651;Laerm;31365;48.858;8.530;2024-02-16T09:32:12;60.57;39.58;77.07;;
45651;Laerm;31365;48.858;8.530;2024-02-16T09:34:41;63.66;39.21;81.87;;
45651;Laerm;31365;48.858;8.530;2024-02-16T09:37:11;63.50;39.46;80.16;;
45651;Laerm;31365;48.858;8.530;2024-02-16T09:39:40;65.22;42.29;78.67;;
45651;Laerm;31365;48.858;8.530;2024-02-16T09:42:09;61.64;44.97;75.31;;
45651;Laerm;31365;48.858;8.530;2024-02-16T09:44:38;64.57;44.73;80.42;;
45651;Laerm;31365;48.858;8.530;2024-02-16T09:47:09;60.65;42.35;78.12;;
45651;Laerm;31365;48.858;8.530;2024-02-16T09:49:40;59.87;43.34;75.73;;
45651;Laerm;31365;48.858;8.530;2024-02-16T09:52:11;63.65;40.33;81.24;;
45651;Laerm;31365;48.858;8.530;2024-02-16T09:54:40;61.43;41.30;74.38;;
45651;Laerm;31365;48.858;8.530;2024-02-16T09:57:09;65.88;44.39;82.28;;
45651;Laerm;31365;48.858;8.530;2024-02-16T09:59:37;61.40;38.52;77.60;;
45651;Laerm;31365;48.858;8.530;2024-02-16T10:02:06;62.07;40.23;81.05;;
45651;Laerm;31365;48.858;8.530;2024-02-16T10:04:35;61.31;42.03;75.45;;
45651;Laerm;31365;48.858;8.530;2024-02-16T10:07:04;62.17;41.82;81.36;;
45651;Laerm;31365;48.858;8.530;2024-02-16T10:09:40;63.78;39.81;82.48;;
45651;Laerm;31365;48.858;8.530;2024-02-16T10:12:10;62.51;41.46;79.80;;
45651;Laerm;31365;48.858;8.530;2024-02-16T10:14:38;58.76;40.23;73.91;;
45651;Laerm;31365;48.858;8.530;2024-02-16T10:17:16;58.48;40.23;77.04;;
45651;Laerm;31365;48.858;8.530;2024-02-16T10:19:55;59.89;41.06;78.13;;
45651;Laerm;31365;48.858;8.530;2024-02-16T10:22:24;65.37;43.99;81.02;;
45651;Laerm;31365;48.858;8.530;2024-02-16T10:24:54;61.10;41.46;78.48;;
45651;Laerm;31365;48.858;8.530;2024-02-16T10:27:23;65.97;44.03;96.73;;
45651;Laerm;31365;48.858;8.530;2024-02-16T10:29:54;60.62;43.39;83.09;;
45651;Laerm;31365;48.858;8.530;2024-02-16T10:32:24;57.85;40.03;86.51;;
45651;Laerm;31365;48.858;8.530;2024-02-16T10:34:55;61.38;41.30;74.00;;
45651;Laerm;31365;48.858;8.530;2024-02-16T10:37:24;65.33;43.34;83.04;;
45651;Laerm;31365;48.858;8.530;2024-02-16T10:39:56;62.24;42.29;78.97;;
45651;Laerm;31365;48.858;8.530;2024-02-16T10:42:27;63.14;40.62;78.24;;
45651;Laerm;31365;48.858;8.530;2024-02-16T10:44:57;66.06;42.16;84.74;;
45651;Laerm;31365;48.858;8.530;2024-02-16T10:47:25;65.53;40.23;86.82;;
45651;Laerm;31365;48.858;8.530;2024-02-16T10:49:55;62.77;41.75;78.69;;
45651;Laerm;31365;48.858;8.530;2024-02-16T10:52:24;64.49;41.68;80.30;;
45651;Laerm;31365;48.858;8.530;2024-02-16T10:54:57;63.70;40.80;80.82;;
45651;Laerm;31365;48.858;8.530;2024-02-16T10:57:26;60.70;41.06;78.04;;
45651;Laerm;31365;48.858;8.530;2024-02-16T10:59:54;62.15;41.53;77.23;;
45651;Laerm;31365;48.858;8.530;2024-02-16T11:02:24;61.56;43.24;81.24;;
45651;Laerm;31365;48.858;8.530;2024-02-16T11:04:53;63.67;43.34;77.47;;
45651;Laerm;31365;48.858;8.530;2024-02-16T11:07:24;63.31;40.33;82.71;;
45651;Laerm;31365;48.858;8.530;2024-02-16T11:09:59;65.07;41.82;81.12;;
45651;Laerm;31365;48.858;8.530;2024-02-16T11:12:33;58.43;39.92;76.92;;
45651;Laerm;31365;48.858;8.530;2024-02-16T11:15:08;62.89;41.14;79.14;;
45651;Laerm;31365;48.858;8.530;2024-02-16T11:17:36;60.15;41.14;75.37;;
45651;Laerm;31365;48.858;8.530;2024-02-16T11:20:07;60.16;42.09;74.60;;
45651;Laerm;31365;48.858;8.530;2024-02-16T11:22:37;60.00;42.59;75.67;;
45651;Laerm;31365;48.858;8.530;2024-02-16T11:25:08;60.24;41.75;75.36;;
45651;Laerm;31365;48.858;8.530;2024-02-16T11:27:37;61.04;40.33;73.96;;
45651;Laerm;31365;48.858;8.530;2024-02-16T11:30:10;60.82;41.30;77.84;;
45651;Laerm;31365;48.858;8.530;2024-02-16T11:32:38;62.28;41.06;77.63;;
45651;Laerm;31365;48.858;8.530;2024-02-16T11:35:09;62.55;43.68;77.46;;
45651;Laerm;31365;48.858;8.530;2024-02-16T11:37:38;65.32;42.71;88.82;;
45651;Laerm;31365;48.858;8.530;2024-02-16T11:40:12;63.92;41.38;88.89;;
45651;Laerm;31365;48.858;8.530;2024-02-16T11:42:41;61.91;41.14;78.59;;
45651;Laerm;31365;48.858;8.530;2024-02-16T11:45:11;60.21;40.98;76.45;;
45651;Laerm;31365;48.858;8.530;2024-02-16T11:47:40;62.97;41.14;76.99;;
45651;Laerm;31365;48.858;8.530;2024-02-16T11:50:09;61.81;41.82;77.82;;
45651;Laerm;31365;48.858;8.530;2024-02-16T11:55:10;60.77;41.06;76.13;;
45651;Laerm;31365;48.858;8.530;2024-02-16T11:57:40;62.98;42.29;77.81;;
45651;Laerm;31365;48.858;8.530;2024-02-16T12:00:11;64.90;42.03;82.41;;
45651;Laerm;31365;48.858;8.530;2024-02-16T12:02:43;62.24;43.09;78.57;;
45651;Laerm;31365;48.858;8.530;2024-02-16T12:05:14;59.27;41.75;77.45;;
45651;Laerm;31365;48.858;8.530;2024-02-16T12:07:42;61.28;43.24;75.80;;
45651;Laerm;31365;48.858;8.530;2024-02-16T12:10:13;61.28;43.24;75.80;;
45651;Laerm;31365;48.858;8.530;2024-02-16T12:12:41;63.36;40.80;77.65;;
45651;Laerm;31365;48.858;8.530;2024-02-16T12:15:11;64.76;41.22;82.84;;
45651;Laerm;31365;48.858;8.530;2024-02-16T12:17:41;60.84;40.62;74.66;;
45651;Laerm;31365;48.858;8.530;2024-02-16T12:20:12;61.37;42.29;76.81;;
45651;Laerm;31365;48.858;8.530;2024-02-16T12:22:42;63.21;41.46;76.95;;
45651;Laerm;31365;48.858;8.530;2024-02-16T12:25:10;61.63;42.82;75.03;;
45651;Laerm;31365;48.858;8.530;2024-02-16T12:27:40;63.86;41.11;80.04;;
45651;Laerm;31365;48.858;8.530;2024-02-16T12:30:10;62.82;41.68;76.94;;
45651;Laerm;31365;48.858;8.530;2024-02-16T12:32:39;63.62;42.47;80.63;;
45651;Laerm;31365;48.858;8.530;2024-02-16T12:35:08;61.58;42.58;76.27;;
45651;Laerm;31365;48.858;8.530;2024-02-16T12:37:38;68.16;42.53;88.43;;
45651;Laerm;31365;48.858;8.530;2024-02-16T12:40:08;57.64;41.06;72.07;;
45651;Laerm;31365;48.858;8.530;2024-02-16T12:42:37;62.45;40.80;75.01;;
45651;Laerm;31365;48.858;8.530;2024-02-16T12:45:08;62.95;41.96;77.50;;
45651;Laerm;31365;48.858;8.530;2024-02-16T12:47:37;64.20;41.53;79.94;;
45651;Laerm;31365;48.858;8.530;2024-02-16T12:50:07;60.78;40.62;77.21;;
45651;Laerm;31365;48.858;8.530;2024-02-16T12:52:35;61.88;40.43;76.49;;
45651;Laerm;31365;48.858;8.530;2024-02-16T12:55:17;60.54;39.46;77.22;;
45651;Laerm;31365;48.858;8.530;2024-02-16T12:57:45;64.24;41.22;79.74;;
45651;Laerm;31365;48.858;8.530;2024-02-16T13:00:17;61.55;42.59;79.56;;
45651;Laerm;31365;48.858;8.530;2024-02-16T13:02:46;62.73;41.68;81.79;;
45651;Laerm;31365;48.858;8.530;2024-02-16T13:05:15;62.16;40.23;79.08;;
45651;Laerm;31365;48.858;8.530;2024-02-16T13:07:43;63.34;42.09;77.21;;
45651;Laerm;31365;48.858;8.530;2024-02-16T13:10:13;62.29;42.29;75.13;;
45651;Laerm;31365;48.858;8.530;2024-02-16T13:12:41;62.75;42.29;76.33;;
45651;Laerm;31365;48.858;8.530;2024-02-16T13:15:11;62.70;41.14;76.09;;
45651;Laerm;31365;48.858;8.530;2024-02-16T13:17:55;66.01;44.39;80.72;;
45651;Laerm;31365;48.858;8.530;2024-02-16T13:20:24;61.00;40.33;75.15;;
45651;Laerm;31365;48.858;8.530;2024-02-16T13:22:53;63.64;43.14;79.57;;
45651;Laerm;31365;48.858;8.530;2024-02-16T13:25:22;64.32;40.03;78.66;;
45651;Laerm;31365;48.858;8.530;2024-02-16T13:27:50;63.34;41.68;77.97;;
45651;Laerm;31365;48.858;8.530;2024-02-16T13:30:18;61.33;42.35;76.34;;
45651;Laerm;31365;48.858;8.530;2024-02-16T13:32:47;64.69;43.72;76.55;;
45651;Laerm;31365;48.858;8.530;2024-02-16T13:35:17;64.07;42.76;82.35;;
45651;Laerm;31365;48.858;8.530;2024-02-16T13:37:48;62.08;41.38;78.43;;
45651;Laerm;31365;48.858;8.530;2024-02-16T13:40:16;63.38;43.34;76.78;;
45651;Laerm;31365;48.858;8.530;2024-02-16T13:42:45;65.07;42.03;78.91;;
45651;Laerm;31365;48.858;8.530;2024-02-16T13:45:16;62.06;41.30;77.43;;
45651;Laerm;31365;48.858;8.530;2024-02-16T13:47:44;61.09;40.62;74.91;;
45651;Laerm;31365;48.858;8.530;2024-02-16T13:50:13;60.33;39.21;77.13;;
45651;Laerm;31365;48.858;8.530;2024-02-16T13:52:43;63.15;43.04;77.45;;
45651;Laerm;31365;48.858;8.530;2024-02-16T13:55:12;65.26;42.35;82.78;;
45651;Laerm;31365;48.858;8.530;2024-02-16T13:57:41;62.70;47.12;75.84;;
45651;Laerm;31365;48.858;8.530;2024-02-16T14:00:10;60.81;40.62;76.62;;
45651;Laerm;31365;48.858;8.530;2024-02-16T14:02:39;63.00;42.03;76.64;;
45651;Laerm;31365;48.858;8.530;2024-02-16T14:05:07;63.03;42.65;74.76;;
45651;Laerm;31365;48.858;8.530;2024-02-16T14:07:36;60.88;40.53;75.46;;
45651;Laerm;31365;48.858;8.530;2024-02-16T14:10:18;64.32;40.03;81.14;;